CST,Max TemperatureF,Mean TemperatureF,Min TemperatureF,Max Dew PointF,MeanDew PointF,Min DewpointF,Max Humidity, Mean Humidity, Min Humidity, Max Sea Level PressureIn, Mean Sea Level PressureIn, Min Sea Level PressureIn, Max VisibilityMiles, Mean VisibilityMiles, Min VisibilityMiles, Max Wind SpeedMPH, Mean Wind SpeedMPH, Max Gust SpeedMPH,PrecipitationIn, CloudCover, Events, WindDirDegrees
2013-1-1,26,18,10,19,15,7,93,89,74,30.24,30.16,30.07,10,9,4,14,7,17,0.00,2,,327
2013-1-2,32,22,12,23,16,5,93,79,64,30.32,30.22,30.15,10,10,10,18,10,24,0.00,0,,309
2013-1-3,33,24,15,21,15,10,86,72,52,30.42,30.35,30.31,10,10,10,12,7,,0.00,0,,280
2013-1-4,32,24,17,30,22,14,93,82,69,30.32,30.23,30.09,10,9,1,22,13,24,0.00,1,Snow,223
2013-1-5,41,29,17,23,19,9,93,68,39,30.36,30.18,30.03,10,10,10,28,13,32,0.00,0,,297
2013-1-6,46,32,17,25,19,12,86,64,37,30.40,30.31,30.18,10,10,10,18,10,23,0.00,0,,235
2013-1-7,48,37,26,25,22,19,74,59,34,30.17,30.05,29.92,10,10,10,23,13,29,0.00,0,,206
2013-1-8,51,38,26,30,25,21,86,66,44,30.19,29.98,29.90,10,10,10,17,11,20,0.00,0,,238
2013-1-9,50,37,24,34,25,21,100,67,32,30.38,30.26,30.13,10,10,2,18,11,22,0.14,2,Rain-Snow,14
2013-1-10,41,37,33,37,34,32,100,92,70,30.15,29.87,29.69,10,8,1,23,11,20,0.15,5,Rain,226
2013-1-11,55,42,28,32,24,9,81,51,25,29.86,29.67,29.58,10,10,5,47,22,56,0.00,1,,236
2013-1-12,28,22,15,21,13,10,93,69,55,30.01,29.94,29.85,10,10,5,15,8,22,0.00,1,Snow,22
2013-1-13,26,17,8,14,11,5,86,74,51,30.18,30.12,30.03,10,10,3,12,5,,0.00,2,Snow,59
2013-1-14,28,19,10,18,11,5,100,72,40,30.25,30.18,30.12,10,10,4,13,7,16,0.00,2,Snow,131
2013-1-15,30,21,12,19,14,9,93,74,47,30.18,30.15,30.12,10,10,2,12,4,16,0.00,2,Snow,268
2013-1-16,51,34,17,27,20,10,75,58,37,30.33,30.19,30.11,10,10,10,21,11,26,0.00,1,,311
2013-1-17,50,37,24,25,21,18,80,59,30,30.53,30.44,30.34,10,10,10,13,7,,0.00,0,,247
2013-1-18,57,44,30,27,23,21,75,54,27,30.39,30.21,30.08,10,10,10,29,15,36,0.00,0,,219
2013-1-19,60,43,26,23,16,10,74,42,15,30.28,30.17,30.05,10,10,10,22,11,31,0.00,0,,330
2013-1-20,59,42,26,23,17,10,80,48,15,30.28,30.18,30.08,10,10,10,24,11,34,0.00,0,,278
2013-1-21,42,30,17,25,21,14,100,76,49,30.34,30.24,30.15,10,10,7,14,8,17,0.00,0,,240
2013-1-22,64,45,26,27,22,18,80,52,16,30.16,30.12,30.07,10,10,10,14,9,,0.00,0,,209
2013-1-23,69,46,23,23,17,5,80,42,8,30.22,30.15,30.10,10,10,10,12,7,,0.00,0,,244
2013-1-24,42,33,24,30,25,16,100,81,51,30.21,30.11,30.01,10,8,0,12,7,,0.00,3,Fog,74
2013-1-25,53,38,24,27,23,21,86,60,30,30.26,30.16,30.03,10,9,5,14,7,18,0.00,0,,26
2013-1-26,60,46,32,41,31,23,87,61,36,30.16,30.02,29.90,10,10,10,17,10,,0.00,0,,172
2013-1-27,68,54,39,43,35,30,87,53,26,29.90,29.82,29.76,10,10,10,36,18,43,0.00,0,,218
2013-1-28,66,52,39,34,31,27,76,48,26,29.86,29.78,29.70,10,10,10,32,16,43,0.00,0,,219
2013-1-29,50,38,26,32,28,19,100,75,40,29.83,29.65,29.53,10,9,0,31,14,41,0.00,3,Fog-Snow,318
2013-1-30,41,29,17,21,16,9,80,62,26,30.05,29.97,29.83,10,10,10,21,15,26,0.00,0,,265
2013-1-31,55,40,26,23,19,12,80,52,18,30.22,30.10,29.98,10,10,10,18,12,26,0.00,0,,293